Time;durP1;ratioP1;P1;durP2;ratioP2;P2;SDS_P1;SDS_P2;PMS_P1;PMS_P2;Temp;Humidity;BMP_temperature;BMP_pressure;BME280_temperature;BME280_humidity;BME280_pressure;Samples;Min_cycle;Max_cycle;Signal;HPM_P1;HPM_P2
2022/03/06 00:00:18;;;;;;;;;3.33;3.33;;;;;;;;5215800;28;8812;-71
2022/03/06 00:02:49;;;;;;;;;0.00;0.00;;;;;;;;5215379;28;9011;-73
2022/03/06 00:05:20;;;;;;;;;3.67;3.67;;;;;;;;5232448;28;8773;-73
2022/03/06 00:07:51;;;;;;;;;0.25;0.25;;;;;;;;5215383;28;8773;-71
2022/03/06 00:10:22;;;;;;;;;7.00;7.00;;;;;;;;5231655;28;8801;-71
2022/03/06 00:12:53;;;;;;;;;6.25;6.25;;;;;;;;5231703;28;10736;-70
2022/03/06 00:15:28;;;;;;;;;4.25;4.25;;;;;;;;5249210;28;8789;-70
2022/03/06 00:17:59;;;;;;;;;0.50;0.50;;;;;;;;5231539;28;8772;-71
2022/03/06 00:20:31;;;;;;;;;6.25;6.00;;;;;;;;5215411;28;9474;-71
2022/03/06 00:23:21;;;;;;;;;1.25;1.25;;;;;;;;5231781;28;8769;-71
2022/03/06 00:25:52;;;;;;;;;12.00;9.00;;;;;;;;5214864;28;9541;-71
2022/03/06 00:28:23;;;;;;;;;1.00;1.00;;;;;;;;5214832;28;8765;-72
2022/03/06 00:30:54;;;;;;;;;0.00;0.00;;;;;;;;5249882;28;8819;-71
2022/03/06 00:33:26;;;;;;;;;1.50;1.50;;;;;;;;5231192;28;9013;-71
2022/03/06 00:36:16;;;;;;;;;47.75;44.00;;;;;;;;5231255;28;8781;-72
2022/03/06 00:38:47;;;;;;;;;3.00;3.00;;;;;;;;5231528;28;10064;-71
2022/03/06 00:41:20;;;;;;;;;0.00;0.00;;;;;;;;5250181;28;8842;-71
2022/03/06 00:44:09;;;;;;;;;3.00;3.00;;;;;;;;5234299;28;8765;-70
2022/03/06 00:46:42;;;;;;;;;3.00;3.00;;;;;;;;5231206;28;8857;-71
2022/03/06 00:49:32;;;;;;;;;0.00;0.00;;;;;;;;5248564;28;8792;-70
2022/03/06 00:52:03;;;;;;;;;1.50;1.50;;;;;;;;5249023;28;8898;-69
2022/03/06 00:54:35;;;;;;;;;0.25;0.25;;;;;;;;5248573;28;8805;-71
2022/03/06 00:57:06;;;;;;;;;3.50;3.50;;;;;;;;5198708;28;8811;-70
2022/03/06 00:59:39;;;;;;;;;11.33;11.33;;;;;;;;5214298;28;8815;-71
2022/03/06 01:02:10;;;;;;;;;1.00;1.00;;;;;;;;5214351;28;9164;-69
2022/03/06 01:04:41;;;;;;;;;4.00;4.00;;;;;;;;5248873;28;9638;-70
2022/03/06 01:07:12;;;;;;;;;2.00;2.00;;;;;;;;5230960;28;8942;-70
2022/03/06 01:09:43;;;;;;;;;0.00;0.00;;;;;;;;5248616;28;8781;-70
2022/03/06 01:12:14;;;;;;;;;1.50;1.50;;;;;;;;5230668;28;8828;-68
2022/03/06 01:14:46;;;;;;;;;1.00;1.00;;;;;;;;5214169;28;9535;-68
2022/03/06 01:17:17;;;;;;;;;2.50;2.50;;;;;;;;5230613;28;8785;-69
2022/03/06 01:19:49;;;;;;;;;4.00;4.00;;;;;;;;5230603;28;8795;-71
2022/03/06 01:22:21;;;;;;;;;0.00;0.00;;;;;;;;5248186;28;8797;-72
2022/03/06 01:24:52;;;;;;;;;5.33;4.00;;;;;;;;5264306;28;8753;-70
2022/03/06 01:27:24;;;;;;;;;3.00;3.00;;;;;;;;5230287;28;8914;-70
2022/03/06 01:29:55;;;;;;;;;3.00;3.00;;;;;;;;5230601;28;9250;-71
2022/03/06 01:32:27;;;;;;;;;13.33;11.67;;;;;;;;5230281;28;8897;-71
2022/03/06 01:34:58;;;;;;;;;5.33;5.33;;;;;;;;5214162;28;9423;-71
2022/03/06 01:37:29;;;;;;;;;3.00;3.00;;;;;;;;5213857;28;9918;-71
2022/03/06 01:40:00;;;;;;;;;0.00;0.00;;;;;;;;5230411;28;8928;-72
2022/03/06 01:42:32;;;;;;;;;26.00;25.33;;;;;;;;5229907;28;8808;-72
2022/03/06 01:45:23;;;;;;;;;19.67;19.67;;;;;;;;5233164;28;9635;-70
2022/03/06 01:47:55;;;;;;;;;8.67;8.67;;;;;;;;5230032;28;9657;-70
2022/03/06 01:50:28;;;;;;;;;1.33;1.33;;;;;;;;5213391;28;9671;-70
2022/03/06 01:53:01;;;;;;;;;3.33;3.33;;;;;;;;5229750;28;9530;-71
2022/03/06 01:55:32;;;;;;;;;6.33;6.33;;;;;;;;5229761;28;9277;-69
2022/03/06 01:58:21;;;;;;;;;32.00;29.25;;;;;;;;5232346;28;9100;-69
2022/03/06 02:00:53;;;;;;;;;19.33;19.00;;;;;;;;5229216;28;11478;-69
2022/03/06 02:03:42;;;;;;;;;4.00;4.00;;;;;;;;5215711;28;9540;-71
2022/03/06 02:06:16;;;;;;;;;1.00;1.00;;;;;;;;5212530;28;9031;-71
2022/03/06 02:08:47;;;;;;;;;24.67;24.67;;;;;;;;5213014;28;8781;-70
2022/03/06 02:11:21;;;;;;;;;1.67;1.67;;;;;;;;5229102;28;9668;-70
2022/03/06 02:13:52;;;;;;;;;18.33;18.33;;;;;;;;5229430;28;9213;-70
2022/03/06 02:16:42;;;;;;;;;1.50;1.50;;;;;;;;5215813;28;10068;-69
2022/03/06 02:19:16;;;;;;;;;5.00;5.00;;;;;;;;5212799;28;8776;-69
2022/03/06 02:21:47;;;;;;;;;3.33;3.33;;;;;;;;5229319;28;8897;-70
2022/03/06 02:24:18;;;;;;;;;0.00;0.00;;;;;;;;5229272;28;8943;-70
2022/03/06 02:26:49;;;;;;;;;0.67;0.67;;;;;;;;5212316;28;8846;-71
2022/03/06 02:29:20;;;;;;;;;3.00;3.00;;;;;;;;5247326;28;11591;-68
2022/03/06 02:31:51;;;;;;;;;1.00;1.00;;;;;;;;5212727;28;8842;-73
2022/03/06 02:34:42;;;;;;;;;3.33;3.33;;;;;;;;5214882;28;8785;-76
2022/03/06 02:37:14;;;;;;;;;6.00;6.00;;;;;;;;5229119;28;8947;-73
2022/03/06 02:39:45;;;;;;;;;1.00;1.00;;;;;;;;5212293;28;9823;-74
2022/03/06 02:42:27;;;;;;;;;3.00;3.00;;;;;;;;5212444;28;8997;-73
2022/03/06 02:45:00;;;;;;;;;1.67;1.67;;;;;;;;5228896;28;9014;-74
2022/03/06 02:47:31;;;;;;;;;6.00;6.00;;;;;;;;5211561;28;8945;-76
2022/03/06 02:50:05;;;;;;;;;1.00;1.00;;;;;;;;5229356;28;9214;-75
2022/03/06 02:52:37;;;;;;;;;0.67;0.67;;;;;;;;5212238;28;9572;-77
2022/03/06 02:55:09;;;;;;;;;3.00;3.00;;;;;;;;5211697;28;9660;-76
2022/03/06 02:57:40;;;;;;;;;0.00;0.00;;;;;;;;5211168;28;9042;-73
2022/03/06 03:00:13;;;;;;;;;10.33;10.33;;;;;;;;5194391;28;8773;-75
2022/03/06 03:02:45;;;;;;;;;0.33;0.33;;;;;;;;5227156;28;9727;-78
2022/03/06 03:05:16;;;;;;;;;3.00;3.00;;;;;;;;5211921;28;9108;-75
2022/03/06 03:07:49;;;;;;;;;2.33;2.33;;;;;;;;5227352;28;9004;-75
2022/03/06 03:10:22;;;;;;;;;19.00;18.25;;;;;;;;5210810;28;8936;-73
2022/03/06 03:12:54;;;;;;;;;3.33;3.33;;;;;;;;5245430;28;9679;-76
2022/03/06 03:15:25;;;;;;;;;3.75;2.50;;;;;;;;5227985;28;8855;-75
2022/03/06 03:17:56;;;;;;;;;1.00;1.00;;;;;;;;5227887;28;8820;-76
2022/03/06 03:20:27;;;;;;;;;1.00;1.00;;;;;;;;5245450;28;8804;-76
2022/03/06 03:22:58;;;;;;;;;10.67;9.67;;;;;;;;5205265;28;8912;-73
2022/03/06 03:25:47;;;;;;;;;1.00;1.00;;;;;;;;5225315;28;10124;-73
2022/03/06 03:28:18;;;;;;;;;7.33;6.00;;;;;;;;5194396;28;9033;-76
2022/03/06 03:30:49;;;;;;;;;4.00;4.00;;;;;;;;5227532;28;9541;-77
2022/03/06 03:33:20;;;;;;;;;0.00;0.00;;;;;;;;5227400;28;9042;-72
2022/03/06 03:35:52;;;;;;;;;3.33;3.33;;;;;;;;5227401;28;9896;-74
2022/03/06 03:38:23;;;;;;;;;19.33;19.33;;;;;;;;5210961;28;9616;-76
2022/03/06 03:40:54;;;;;;;;;3.67;3.00;;;;;;;;5227895;28;9625;-75
2022/03/06 03:43:25;;;;;;;;;3.33;3.33;;;;;;;;5210401;28;9320;-71
2022/03/06 03:45:57;;;;;;;;;4.67;4.67;;;;;;;;5227055;28;8963;-75
2022/03/06 03:48:29;;;;;;;;;5.33;5.33;;;;;;;;5210964;28;10578;-74
2022/03/06 03:51:00;;;;;;;;;7.00;7.00;;;;;;;;5158203;28;1974784;-73
2022/03/06 03:53:31;;;;;;;;;7.00;7.00;;;;;;;;5246059;28;8792;-74
2022/03/06 03:56:04;;;;;;;;;1.67;1.00;;;;;;;;5227989;28;8842;-74
2022/03/06 03:58:35;;;;;;;;;9.00;9.00;;;;;;;;5211344;28;9610;-73
2022/03/06 04:01:06;;;;;;;;;4.00;4.00;;;;;;;;5200435;28;9151;-76
2022/03/06 04:03:37;;;;;;;;;9.00;9.00;;;;;;;;5199554;28;8812;-76
2022/03/06 04:06:08;;;;;;;;;13.33;13.33;;;;;;;;5226035;28;9458;-73
2022/03/06 04:08:39;;;;;;;;;10.00;10.00;;;;;;;;5244302;28;8801;-72
2022/03/06 04:11:10;;;;;;;;;7.00;7.00;;;;;;;;5244398;28;8788;-72
2022/03/06 04:13:41;;;;;;;;;10.00;10.00;;;;;;;;5227627;28;9474;-77
2022/03/06 04:16:13;;;;;;;;;5.33;5.33;;;;;;;;5210713;28;9487;-76
2022/03/06 04:18:44;;;;;;;;;0.00;0.00;;;;;;;;5214387;28;9372;-76
2022/03/06 04:21:34;;;;;;;;;4.67;4.00;;;;;;;;5244280;28;9213;-74
2022/03/06 04:24:05;;;;;;;;;3.00;3.00;;;;;;;;5226091;28;9359;-74
2022/03/06 04:26:37;;;;;;;;;17.00;17.00;;;;;;;;5227210;28;8968;-74
2022/03/06 04:29:08;;;;;;;;;1.00;1.00;;;;;;;;5227172;28;9681;-76
2022/03/06 04:31:39;;;;;;;;;6.00;5.67;;;;;;;;5227070;28;9049;-76
2022/03/06 04:34:10;;;;;;;;;6.67;4.67;;;;;;;;5213782;28;8983;-80
2022/03/06 04:36:42;;;;;;;;;0.00;0.00;;;;;;;;5248929;28;9195;-72
2022/03/06 04:39:12;;;;;;;;;7.33;5.67;;;;;;;;5214147;28;9040;-73
2022/03/06 04:41:44;;;;;;;;;0.00;0.00;;;;;;;;5230853;28;9114;-73
2022/03/06 04:44:15;;;;;;;;;3.33;3.33;;;;;;;;5247657;28;10325;-72
2022/03/06 04:46:46;;;;;;;;;3.67;3.67;;;;;;;;5215636;28;9888;-75
2022/03/06 04:49:18;;;;;;;;;1.00;1.00;;;;;;;;5231269;28;9030;-74
2022/03/06 04:51:50;;;;;;;;;3.00;3.00;;;;;;;;5231230;28;9063;-86
2022/03/06 04:54:21;;;;;;;;;12.33;12.33;;;;;;;;5252778;28;9045;-80
2022/03/06 04:57:11;;;;;;;;;1.00;1.00;;;;;;;;5216169;28;9270;-84
2022/03/06 05:00:01;;;;;;;;;1.00;1.00;;;;;;;;5210186;28;9290;-81
2022/03/06 05:02:33;;;;;;;;;3.00;3.00;;;;;;;;5230435;28;9889;-86
2022/03/06 05:05:04;;;;;;;;;2.33;2.33;;;;;;;;5213739;28;9905;-85
2022/03/06 05:07:35;;;;;;;;;9.00;7.00;;;;;;;;5214394;28;9030;-82
2022/03/06 05:10:10;;;;;;;;;1.00;1.00;;;;;;;;5230779;28;9330;-79
2022/03/06 05:12:41;;;;;;;;;3.00;1.00;;;;;;;;5213993;28;8910;-83
2022/03/06 05:15:13;;;;;;;;;1.00;1.00;;;;;;;;5211394;28;9070;-83
2022/03/06 05:17:44;;;;;;;;;3.00;3.00;;;;;;;;5194164;28;9011;-80
2022/03/06 05:20:15;;;;;;;;;3.67;3.67;;;;;;;;5210743;28;9108;-79
2022/03/06 05:22:46;;;;;;;;;1.50;1.50;;;;;;;;5203136;28;9142;-81
2022/03/06 05:25:18;;;;;;;;;0.50;0.00;;;;;;;;5228567;28;8761;-81
2022/03/06 05:27:49;;;;;;;;;0.00;0.00;;;;;;;;5245851;28;8793;-81
2022/03/06 05:30:20;;;;;;;;;3.75;3.75;;;;;;;;5212741;28;8865;-77
2022/03/06 05:32:52;;;;;;;;;7.33;6.67;;;;;;;;5214000;28;8796;-76
2022/03/06 05:35:23;;;;;;;;;3.50;3.50;;;;;;;;5211807;28;9016;-74
2022/03/06 05:37:55;;;;;;;;;6.00;6.00;;;;;;;;5227823;28;8813;-76
2022/03/06 05:40:27;;;;;;;;;4.50;4.50;;;;;;;;5227758;28;9511;-76
2022/03/06 05:42:58;;;;;;;;;4.00;4.00;;;;;;;;5211125;28;9559;-75
2022/03/06 05:45:29;;;;;;;;;3.00;3.00;;;;;;;;5227258;28;9002;-77
2022/03/06 05:48:01;;;;;;;;;9.00;9.00;;;;;;;;5228087;28;8873;-77
2022/03/06 05:50:32;;;;;;;;;1.00;1.00;;;;;;;;5226106;28;8960;-76
2022/03/06 05:53:04;;;;;;;;;4.00;4.00;;;;;;;;5208928;28;8890;-79
2022/03/06 05:55:35;;;;;;;;;3.00;3.00;;;;;;;;5210474;28;9068;-78
2022/03/06 05:58:06;;;;;;;;;3.75;3.75;;;;;;;;5244045;28;8988;-75
2022/03/06 06:00:56;;;;;;;;;4.00;4.00;;;;;;;;5209124;28;8821;-74
2022/03/06 06:03:27;;;;;;;;;4.00;3.00;;;;;;;;5202483;28;8900;-76
2022/03/06 06:05:58;;;;;;;;;6.00;6.00;;;;;;;;5228741;28;8833;-76
2022/03/06 06:08:29;;;;;;;;;19.33;19.33;;;;;;;;5229152;28;10349;-74
2022/03/06 06:11:01;;;;;;;;;36.00;34.33;;;;;;;;5244705;28;11509;-73
2022/03/06 06:13:50;;;;;;;;;1.00;1.00;;;;;;;;5246169;28;9356;-75
2022/03/06 06:16:21;;;;;;;;;4.25;4.25;;;;;;;;5229229;28;8785;-78
2022/03/06 06:18:53;;;;;;;;;3.00;3.00;;;;;;;;5273165;28;9576;-77
2022/03/06 06:21:25;;;;;;;;;4.50;3.25;;;;;;;;5221127;28;9274;-77
2022/03/06 06:23:56;;;;;;;;;0.75;0.75;;;;;;;;5173719;28;8810;-77
2022/03/06 06:26:27;;;;;;;;;6.25;6.25;;;;;;;;5183234;28;8800;-76
2022/03/06 06:29:00;;;;;;;;;1.00;1.00;;;;;;;;5210402;28;8816;-77
2022/03/06 06:31:32;;;;;;;;;8.25;7.00;;;;;;;;5226973;28;8877;-77
2022/03/06 06:34:03;;;;;;;;;5.00;5.00;;;;;;;;5209487;28;8828;-77
2022/03/06 06:36:34;;;;;;;;;3.00;3.00;;;;;;;;5227126;28;8849;-77
2022/03/06 06:39:27;;;;;;;;;4.25;4.25;;;;;;;;5229142;28;8798;-76
2022/03/06 06:41:59;;;;;;;;;5.50;5.50;;;;;;;;5226916;28;9556;-76
2022/03/06 06:44:31;;;;;;;;;10.50;10.50;;;;;;;;5216918;28;8813;-77
2022/03/06 06:47:03;;;;;;;;;15.75;15.50;;;;;;;;5244130;28;8807;-77
2022/03/06 06:49:35;;;;;;;;;7.00;6.50;;;;;;;;5227471;28;8804;-76
2022/03/06 06:52:06;;;;;;;;;4.00;4.00;;;;;;;;5226442;28;8932;-75
2022/03/06 06:54:38;;;;;;;;;3.00;3.00;;;;;;;;5209783;28;8835;-75
2022/03/06 06:57:09;;;;;;;;;6.75;6.25;;;;;;;;5209430;28;8835;-75
2022/03/06 06:59:40;;;;;;;;;3.00;3.00;;;;;;;;5226265;28;8793;-75
2022/03/06 07:02:11;;;;;;;;;5.00;4.75;;;;;;;;5226424;28;8804;-74
2022/03/06 07:04:43;;;;;;;;;3.75;3.75;;;;;;;;5209626;28;8808;-74
2022/03/06 07:07:14;;;;;;;;;4.50;4.50;;;;;;;;5209492;28;8804;-76
2022/03/06 07:09:45;;;;;;;;;0.75;0.75;;;;;;;;5208624;28;8786;-76
2022/03/06 07:12:16;;;;;;;;;6.00;6.00;;;;;;;;5208969;28;8805;-77
2022/03/06 07:14:48;;;;;;;;;5.00;5.00;;;;;;;;5210939;28;11488;-77
2022/03/06 07:17:19;;;;;;;;;2.00;2.00;;;;;;;;5210893;28;8805;-78
2022/03/06 07:20:10;;;;;;;;;4.00;4.00;;;;;;;;5214175;28;8809;-76
2022/03/06 07:22:41;;;;;;;;;7.00;7.00;;;;;;;;5211378;28;8780;-76
2022/03/06 07:25:12;;;;;;;;;3.75;3.75;;;;;;;;5228229;28;8773;-76
2022/03/06 07:27:44;;;;;;;;;8.00;8.00;;;;;;;;5228355;28;8773;-75
2022/03/06 07:30:35;;;;;;;;;13.33;13.33;;;;;;;;5213847;28;8773;-75
2022/03/06 07:33:07;;;;;;;;;18.67;18.67;;;;;;;;5227581;28;9583;-76
2022/03/06 07:35:56;;;;;;;;;26.33;22.00;;;;;;;;5213757;28;9164;-76
2022/03/06 07:38:28;;;;;;;;;5.00;5.00;;;;;;;;5211049;28;9344;-74
2022/03/06 07:41:00;;;;;;;;;4.50;4.50;;;;;;;;5211125;28;8768;-75
2022/03/06 07:43:31;;;;;;;;;0.00;0.00;;;;;;;;5206999;28;8798;-76
2022/03/06 07:46:02;;;;;;;;;3.25;3.25;;;;;;;;5236748;28;8792;-75
2022/03/06 07:48:34;;;;;;;;;1.50;1.50;;;;;;;;5208344;28;8793;-76
2022/03/06 07:51:23;;;;;;;;;0.75;0.75;;;;;;;;5210791;28;8839;-76
2022/03/06 07:53:55;;;;;;;;;12.75;12.25;;;;;;;;5210430;28;8852;-75
2022/03/06 07:56:27;;;;;;;;;0.00;0.00;;;;;;;;5215147;28;8797;-76
2022/03/06 07:58:59;;;;;;;;;3.25;3.25;;;;;;;;5202580;28;8933;-75
2022/03/06 08:01:49;;;;;;;;;5.00;5.00;;;;;;;;5201412;28;9582;-75
2022/03/06 08:04:20;;;;;;;;;10.67;10.33;;;;;;;;5237456;28;8785;-74
2022/03/06 08:06:52;;;;;;;;;3.50;3.50;;;;;;;;5211255;28;8820;-75
2022/03/06 08:09:24;;;;;;;;;3.25;3.25;;;;;;;;5230698;28;9531;-76
2022/03/06 08:11:55;;;;;;;;;9.75;7.00;;;;;;;;5214955;28;8797;-74
2022/03/06 08:14:27;;;;;;;;;0.00;0.00;;;;;;;;5265244;28;8813;-75
2022/03/06 08:16:58;;;;;;;;;2.75;2.75;;;;;;;;5231647;28;11356;-75
2022/03/06 08:19:29;;;;;;;;;1.00;1.00;;;;;;;;5248379;28;8808;-74
2022/03/06 08:22:01;;;;;;;;;1.00;1.00;;;;;;;;5264834;28;8796;-73
2022/03/06 08:24:32;;;;;;;;;7.50;6.25;;;;;;;;5246763;28;11442;-73
2022/03/06 08:27:21;;;;;;;;;3.25;3.25;;;;;;;;5217663;28;8863;-73
2022/03/06 08:29:52;;;;;;;;;4.00;4.00;;;;;;;;5214917;28;8796;-75
2022/03/06 08:32:23;;;;;;;;;13.00;9.67;;;;;;;;5231412;28;8820;-74
2022/03/06 08:34:55;;;;;;;;;7.00;7.00;;;;;;;;5231253;28;11648;-74
2022/03/06 08:37:26;;;;;;;;;4.25;4.25;;;;;;;;5214644;28;9106;-74
2022/03/06 08:39:57;;;;;;;;;1.00;1.00;;;;;;;;5215026;28;8781;-73
2022/03/06 08:42:28;;;;;;;;;1.00;1.00;;;;;;;;5215114;28;9433;-74
2022/03/06 08:44:59;;;;;;;;;6.67;5.33;;;;;;;;5264945;28;8796;-76
2022/03/06 08:47:30;;;;;;;;;7.00;7.00;;;;;;;;5229146;28;11560;-77
2022/03/06 08:50:01;;;;;;;;;3.50;3.50;;;;;;;;5193999;28;8909;-76
2022/03/06 08:52:32;;;;;;;;;2.33;2.33;;;;;;;;5209146;28;8845;-76
2022/03/06 08:55:03;;;;;;;;;4.67;4.67;;;;;;;;5209982;28;8925;-75
2022/03/06 08:57:36;;;;;;;;;2.60;1.40;;;;;;;;5193853;28;9153;-76
2022/03/06 09:00:08;;;;;;;;;3.20;3.20;;;;;;;;5210366;28;8913;-76
2022/03/06 09:02:39;;;;;;;;;1.40;1.40;;;;;;;;5194074;28;8810;-76
2022/03/06 09:05:10;;;;;;;;;0.00;0.00;;;;;;;;5193531;28;8880;-75
2022/03/06 09:07:41;;;;;;;;;9.50;9.50;;;;;;;;5210504;28;9053;-74
2022/03/06 09:10:31;;;;;;;;;0.00;0.00;;;;;;;;5236028;28;8815;-74
2022/03/06 09:13:02;;;;;;;;;4.80;4.80;;;;;;;;5267882;28;8813;-74
2022/03/06 09:15:34;;;;;;;;;6.80;6.80;;;;;;;;5251095;28;9527;-73
2022/03/06 09:18:05;;;;;;;;;1.80;1.80;;;;;;;;5250844;28;8893;-73
2022/03/06 09:20:36;;;;;;;;;0.40;0.40;;;;;;;;5251475;28;9485;-73
2022/03/06 09:23:09;;;;;;;;;0.25;0.25;;;;;;;;5251086;28;8840;-74
2022/03/06 09:25:39;;;;;;;;;7.80;7.80;;;;;;;;5251016;28;11397;-74
2022/03/06 09:28:11;;;;;;;;;0.00;0.00;;;;;;;;5229980;28;8799;-71
2022/03/06 09:31:00;;;;;;;;;1.00;1.00;;;;;;;;5209096;28;10484;-77
2022/03/06 09:33:31;;;;;;;;;1.00;1.00;;;;;;;;5193260;28;8834;-75
2022/03/06 09:36:21;;;;;;;;;3.50;3.50;;;;;;;;5227933;28;9504;-78
2022/03/06 09:39:10;;;;;;;;;0.00;0.00;;;;;;;;5200179;28;9500;-80
2022/03/06 09:41:42;;;;;;;;;2.20;2.20;;;;;;;;5196834;28;8805;-80
2022/03/06 09:44:13;;;;;;;;;0.00;0.00;;;;;;;;5213345;28;8797;-79
2022/03/06 09:46:44;;;;;;;;;3.25;3.25;;;;;;;;5196386;28;8865;-80
2022/03/06 09:49:16;;;;;;;;;6.00;6.00;;;;;;;;5193130;28;12364;-79
2022/03/06 09:51:47;;;;;;;;;5.60;5.60;;;;;;;;5188492;28;12350;-77
2022/03/06 09:54:18;;;;;;;;;3.25;3.25;;;;;;;;5188095;28;8821;-79
2022/03/06 09:56:48;;;;;;;;;0.00;0.00;;;;;;;;5205050;28;8819;-79
2022/03/06 09:59:20;;;;;;;;;0.00;0.00;;;;;;;;5171873;28;8844;-79
2022/03/06 10:01:51;;;;;;;;;1.40;1.40;;;;;;;;5188011;28;8828;-80
2022/03/06 10:04:29;;;;;;;;;1.40;1.40;;;;;;;;5168579;28;8809;-79
2022/03/06 10:07:19;;;;;;;;;9.40;9.40;;;;;;;;5202267;28;8859;-79
2022/03/06 10:09:54;;;;;;;;;7.40;7.40;;;;;;;;5204746;28;8796;-78
2022/03/06 10:12:44;;;;;;;;;6.40;5.60;;;;;;;;5191209;28;8901;-79
2022/03/06 10:15:17;;;;;;;;;24.75;21.75;;;;;;;;5172099;28;8808;-77
2022/03/06 10:17:59;;;;;;;;;9.60;9.20;;;;;;;;5188790;28;8835;-78
2022/03/06 10:20:30;;;;;;;;;19.00;16.80;;;;;;;;5205056;28;8788;-78
2022/03/06 10:23:01;;;;;;;;;8.40;8.40;;;;;;;;5176555;28;8807;-79
2022/03/06 10:25:32;;;;;;;;;9.50;9.50;;;;;;;;5185513;28;9571;-78
2022/03/06 10:28:03;;;;;;;;;5.60;5.60;;;;;;;;5172227;28;8942;-79
2022/03/06 10:30:35;;;;;;;;;9.00;8.25;;;;;;;;5187159;28;9689;-78
2022/03/06 10:33:16;;;;;;;;;77.00;62.33;;;;;;;;5187010;28;11501;-79
2022/03/06 10:35:48;;;;;;;;;25.20;21.60;;;;;;;;5204075;28;9624;-79
2022/03/06 10:38:30;;;;;;;;;9.40;9.40;;;;;;;;5186516;28;8820;-79
2022/03/06 10:41:02;;;;;;;;;163.50;124.75;;;;;;;;5186904;28;8797;-78
2022/03/06 10:43:35;;;;;;;;;92.33;72.67;;;;;;;;5186864;28;12401;-78
2022/03/06 10:46:24;;;;;;;;;15.20;14.80;;;;;;;;5194559;28;8962;-77
2022/03/06 10:48:57;;;;;;;;;13.00;13.00;;;;;;;;5205990;28;8788;-77
2022/03/06 10:51:29;;;;;;;;;15.20;13.00;;;;;;;;5214789;28;11545;-77
2022/03/06 10:54:00;;;;;;;;;3.40;3.40;;;;;;;;5208165;28;8838;-75
2022/03/06 10:56:31;;;;;;;;;12.40;12.40;;;;;;;;5228410;28;9544;-75
2022/03/06 10:59:04;;;;;;;;;5.80;5.80;;;;;;;;5207714;28;8810;-78
2022/03/06 11:01:36;;;;;;;;;0.00;0.00;;;;;;;;5223691;28;8786;-76
2022/03/06 11:04:25;;;;;;;;;4.40;4.40;;;;;;;;5222941;28;8820;-77
2022/03/06 11:07:14;;;;;;;;;40.00;23.50;;;;;;;;5210065;28;8870;-77
2022/03/06 11:09:46;;;;;;;;;41.00;40.33;;;;;;;;5224605;28;8793;-77
2022/03/06 11:12:17;;;;;;;;;13.50;13.00;;;;;;;;5223892;28;9588;-77
2022/03/06 11:14:48;;;;;;;;;15.40;14.40;;;;;;;;5207586;28;8778;-77
2022/03/06 11:17:20;;;;;;;;;6.00;6.00;;;;;;;;5207254;28;8816;-76
2022/03/06 11:19:51;;;;;;;;;4.00;4.00;;;;;;;;5240374;28;11403;-77
2022/03/06 11:22:34;;;;;;;;;3.00;3.00;;;;;;;;5224544;28;8780;-76
2022/03/06 11:25:10;;;;;;;;;14.40;11.20;;;;;;;;5206883;28;8770;-76
2022/03/06 11:28:00;;;;;;;;;5.80;4.20;;;;;;;;5240719;28;8798;-77
2022/03/06 11:30:31;;;;;;;;;32.50;32.50;;;;;;;;5206990;28;8866;-78
2022/03/06 11:33:02;;;;;;;;;12.00;11.00;;;;;;;;5206841;28;8802;-77
2022/03/06 11:35:38;;;;;;;;;2.00;2.00;;;;;;;;5207281;28;8828;-77
2022/03/06 11:38:10;;;;;;;;;14.60;14.60;;;;;;;;5220433;28;8788;-77
2022/03/06 11:40:44;;;;;;;;;9.60;9.60;;;;;;;;5209286;28;8806;-77
2022/03/06 11:43:41;;;;;;;;;2.40;2.40;;;;;;;;5245573;28;8784;-75
2022/03/06 11:46:16;;;;;;;;;6.20;6.20;;;;;;;;5224065;28;8808;-75
2022/03/06 11:48:48;;;;;;;;;5.80;5.80;;;;;;;;5227940;28;8806;-75
2022/03/06 11:51:21;;;;;;;;;8.60;8.60;;;;;;;;5211689;28;8813;-77
2022/03/06 11:54:06;;;;;;;;;15.40;15.40;;;;;;;;5211255;28;8844;-76
2022/03/06 11:56:41;;;;;;;;;1.00;1.00;;;;;;;;5211769;28;8789;-76
2022/03/06 11:59:23;;;;;;;;;3.00;3.00;;;;;;;;5211473;28;8789;-75
2022/03/06 12:01:55;;;;;;;;;4.40;4.40;;;;;;;;5210898;28;8863;-76
2022/03/06 12:04:46;;;;;;;;;1.00;1.00;;;;;;;;5227793;28;8806;-76
2022/03/06 12:07:17;;;;;;;;;4.00;4.00;;;;;;;;5226430;28;8845;-75
2022/03/06 12:09:52;;;;;;;;;6.20;6.20;;;;;;;;5217262;28;9500;-76
2022/03/06 12:12:23;;;;;;;;;5.60;5.60;;;;;;;;5223473;28;8804;-77
2022/03/06 12:14:55;;;;;;;;;7.75;7.00;;;;;;;;5192358;28;9489;-76
2022/03/06 12:17:30;;;;;;;;;9.00;9.00;;;;;;;;5227553;28;9320;-77
2022/03/06 12:20:07;;;;;;;;;6.40;6.40;;;;;;;;5228161;28;8793;-77
2022/03/06 12:22:48;;;;;;;;;1.80;1.80;;;;;;;;5227980;28;8781;-76
2022/03/06 12:25:20;;;;;;;;;15.20;13.40;;;;;;;;5211142;28;8844;-75
2022/03/06 12:28:01;;;;;;;;;3.60;3.60;;;;;;;;5227474;28;9497;-75
2022/03/06 12:30:50;;;;;;;;;10.60;10.60;;;;;;;;5227378;28;8874;-75
2022/03/06 12:33:24;;;;;;;;;15.00;15.00;;;;;;;;5205763;28;9597;-75
2022/03/06 12:36:23;;;;;;;;;4.20;4.20;;;;;;;;5190119;28;8784;-75
2022/03/06 12:38:55;;;;;;;;;9.20;9.20;;;;;;;;5189109;28;8815;-75
2022/03/06 12:41:27;;;;;;;;;3.40;3.40;;;;;;;;5190143;28;8927;-74
2022/03/06 12:44:00;;;;;;;;;6.00;5.20;;;;;;;;5190202;28;8812;-74
2022/03/06 12:46:31;;;;;;;;;10.40;7.60;;;;;;;;5190035;28;8800;-75
2022/03/06 12:49:02;;;;;;;;;9.80;8.20;;;;;;;;5189808;28;8796;-75
2022/03/06 12:51:35;;;;;;;;;3.00;3.00;;;;;;;;5189640;28;8847;-76
2022/03/06 12:54:16;;;;;;;;;6.80;6.80;;;;;;;;5213108;28;8821;-74
2022/03/06 12:56:47;;;;;;;;;5.60;5.60;;;;;;;;5210226;28;8936;-75
2022/03/06 12:59:18;;;;;;;;;9.60;9.60;;;;;;;;5226686;28;8801;-75
2022/03/06 13:01:49;;;;;;;;;7.80;6.00;;;;;;;;5227971;28;8854;-75
2022/03/06 13:04:22;;;;;;;;;10.20;9.40;;;;;;;;5210017;28;8785;-75
2022/03/06 13:06:53;;;;;;;;;17.40;16.80;;;;;;;;5209897;28;8932;-75
2022/03/06 13:09:42;;;;;;;;;24.00;21.00;;;;;;;;5212561;28;8823;-75
2022/03/06 13:12:13;;;;;;;;;6.25;6.25;;;;;;;;5208413;28;8810;-77
2022/03/06 13:14:44;;;;;;;;;16.50;16.25;;;;;;;;5223748;28;10525;-74
2022/03/06 13:17:18;;;;;;;;;18.75;18.75;;;;;;;;5205811;28;11523;-75
2022/03/06 13:19:52;;;;;;;;;14.20;14.20;;;;;;;;5205736;28;8796;-75
2022/03/06 13:22:27;;;;;;;;;9.00;9.00;;;;;;;;5189342;28;8784;-74
2022/03/06 13:24:59;;;;;;;;;21.80;20.00;;;;;;;;5173236;28;8926;-75
2022/03/06 13:27:30;;;;;;;;;12.20;12.20;;;;;;;;5189423;28;8819;-74
2022/03/06 13:30:03;;;;;;;;;11.50;11.50;;;;;;;;5225909;28;8778;-76
2022/03/06 13:32:56;;;;;;;;;7.20;7.20;;;;;;;;5226134;28;8809;-74
2022/03/06 13:35:38;;;;;;;;;18.40;18.40;;;;;;;;5209335;28;8836;-74
2022/03/06 13:38:25;;;;;;;;;10.00;10.00;;;;;;;;5209746;28;8790;-74
2022/03/06 13:41:06;;;;;;;;;9.40;9.40;;;;;;;;5226065;28;8778;-74
2022/03/06 13:43:39;;;;;;;;;8.20;8.20;;;;;;;;5207356;28;8798;-74
2022/03/06 13:46:12;;;;;;;;;20.20;19.00;;;;;;;;5208186;28;8802;-74
2022/03/06 13:48:43;;;;;;;;;3.40;3.40;;;;;;;;5208929;28;8789;-74
2022/03/06 13:51:21;;;;;;;;;29.67;27.33;;;;;;;;5225766;28;8836;-74
2022/03/06 13:53:56;;;;;;;;;24.00;24.00;;;;;;;;5225341;28;8837;-75
2022/03/06 13:56:31;;;;;;;;;34.40;29.20;;;;;;;;5209439;28;8774;-75
2022/03/06 13:59:04;;;;;;;;;13.40;12.80;;;;;;;;5226144;28;8892;-73
2022/03/06 14:01:36;;;;;;;;;30.00;28.60;;;;;;;;5225532;28;8774;-73
2022/03/06 14:04:08;;;;;;;;;35.50;30.25;;;;;;;;5209056;28;8777;-75
2022/03/06 14:06:42;;;;;;;;;29.75;22.00;;;;;;;;5207712;28;8861;-73
2022/03/06 14:09:26;;;;;;;;;30.25;29.75;;;;;;;;5209226;28;8794;-73
2022/03/06 14:12:04;;;;;;;;;32.75;32.25;;;;;;;;5192647;28;8912;-74
2022/03/06 14:14:40;;;;;;;;;23.75;23.75;;;;;;;;5224932;28;8814;-74
2022/03/06 14:17:14;;;;;;;;;42.50;34.25;;;;;;;;5225428;28;8789;-74
2022/03/06 14:19:55;;;;;;;;;60.00;46.75;;;;;;;;5225319;28;8891;-73
2022/03/06 14:22:26;;;;;;;;;24.25;24.25;;;;;;;;5208703;28;8820;-74
2022/03/06 14:24:57;;;;;;;;;45.00;44.33;;;;;;;;5208751;28;8806;-72
2022/03/06 14:27:28;;;;;;;;;34.67;34.67;;;;;;;;5224720;28;10416;-72
2022/03/06 14:29:59;;;;;;;;;41.75;37.25;;;;;;;;5208382;28;11541;-74
2022/03/06 14:32:30;;;;;;;;;48.00;42.00;;;;;;;;5208504;28;8813;-74
2022/03/06 14:35:01;;;;;;;;;58.75;49.00;;;;;;;;5225019;28;8801;-75
2022/03/06 14:37:33;;;;;;;;;63.33;50.33;;;;;;;;5208713;28;8810;-76
2022/03/06 14:40:04;;;;;;;;;59.67;49.00;;;;;;;;5208619;28;9063;-77
2022/03/06 14:42:35;;;;;;;;;54.25;48.75;;;;;;;;5206819;28;8902;-75
2022/03/06 14:45:07;;;;;;;;;58.00;49.00;;;;;;;;5208383;28;8814;-74
2022/03/06 14:47:38;;;;;;;;;60.25;51.75;;;;;;;;5225439;28;8802;-73
2022/03/06 14:50:08;;;;;;;;;52.00;45.33;;;;;;;;5241105;28;8800;-77
2022/03/06 14:52:39;;;;;;;;;43.00;37.67;;;;;;;;5211312;28;8812;-76
2022/03/06 14:55:11;;;;;;;;;45.33;41.33;;;;;;;;5210667;28;8824;-74
2022/03/06 14:57:42;;;;;;;;;46.50;43.00;;;;;;;;5211297;28;11509;-74
2022/03/06 15:00:13;;;;;;;;;40.67;37.67;;;;;;;;5244579;28;8796;-75
2022/03/06 15:02:44;;;;;;;;;65.75;55.00;;;;;;;;5211172;28;8854;-75
2022/03/06 15:05:15;;;;;;;;;68.33;54.67;;;;;;;;5227456;28;8793;-75
2022/03/06 15:07:46;;;;;;;;;81.33;64.67;;;;;;;;5227881;28;8816;-75
2022/03/06 15:10:17;;;;;;;;;58.75;48.50;;;;;;;;5210819;28;11555;-75
2022/03/06 15:12:48;;;;;;;;;44.00;42.33;;;;;;;;5208122;28;8797;-75
2022/03/06 15:15:19;;;;;;;;;55.75;49.00;;;;;;;;5225511;28;11413;-76
2022/03/06 15:17:50;;;;;;;;;54.00;48.33;;;;;;;;5209741;28;8878;-75
2022/03/06 15:20:22;;;;;;;;;40.00;39.33;;;;;;;;5193405;28;8796;-76
2022/03/06 15:22:53;;;;;;;;;76.25;55.25;;;;;;;;5209738;28;11157;-75
2022/03/06 15:25:24;;;;;;;;;82.00;66.00;;;;;;;;5224809;28;8801;-76
2022/03/06 15:27:55;;;;;;;;;89.00;69.00;;;;;;;;5209017;28;9399;-75